KCAD/CAD METAR and TAF weather

Enter ICAO airport designator
Station Type Date Time Source
KCAD METAR 2018/01/16 09:15 UTC NOAA

KCAD 160915Z AUTO 00000KT 7SM -SN BKN027 BKN032 M11/M13 A3027 RMK AO2 T11171136


Station Type Date Time Source
KCAD Decoded METAR 2018/01/16 09:15 UTC NOAA

Cadillac / Wexford County, MI, United States (KCAD) 44-17N 085-25W
Jan 16, 2018 - 04:15 AM EST / 2018.01.16 0915 UTC
Wind: Calm:0
Visibility: 7 mile(s):0
Sky conditions: mostly cloudy
Weather: light snow
Temperature: 10.9 F (-11.7 C)
Dew Point: 7.5 F (-13.6 C)
Relative Humidity: 85%
Pressure (altimeter): 30.27 in. Hg (1025 hPa)
ob: KCAD 160915Z AUTO 00000KT 7SM -SN BKN027 BKN032 M11/M13 A3027 RMK AO2 T11171136
cycle: 9

Station Type Date Time Source
KCAD TAF UTC NOAA

Error!


Example: see airport list